Time;durP1;ratioP1;P1;durP2;ratioP2;P2;SDS_P1;SDS_P2;PMS_P1;PMS_P2;Temp;Humidity;BMP_temperature;BMP_pressure;BME280_temperature;BME280_humidity;BME280_pressure;Samples;Min_cycle;Max_cycle;Signal;HPM_P1;HPM_P2
2022/03/31 00:01:06;;;;;;;12.20;5.90;;;;;;;6.62;100.00;100070.34;5266554;28;20032;-77
2022/03/31 00:03:37;;;;;;;11.45;5.90;;;;;;;6.58;100.00;100076.19;5266953;28;20077;-77
2022/03/31 00:06:07;;;;;;;16.45;6.35;;;;;;;6.54;100.00;100069.47;5265926;28;20038;-77
2022/03/31 00:08:38;;;;;;;11.95;6.50;;;;;;;6.50;100.00;100074.28;5267144;28;20031;-78
2022/03/31 00:11:09;;;;;;;12.63;6.30;;;;;;;6.46;100.00;100073.75;5266765;28;20028;-77
2022/03/31 00:13:41;;;;;;;12.20;6.03;;;;;;;6.45;100.00;100081.91;5267418;28;20383;-77
2022/03/31 00:16:12;;;;;;;15.48;6.85;;;;;;;6.44;100.00;100074.94;5255305;28;20023;-77
2022/03/31 00:18:43;;;;;;;12.93;6.38;;;;;;;6.44;100.00;100072.25;5267085;28;20488;-77
2022/03/31 00:24:40;;;;;;;14.07;6.90;;;;;;;6.49;100.00;100068.13;5266143;28;20383;-77
2022/03/31 00:27:11;;;;;;;12.93;6.85;;;;;;;6.51;100.00;100067.97;5266686;28;20035;-77
2022/03/31 00:29:42;;;;;;;14.95;6.68;;;;;;;6.52;100.00;100069.63;5266785;28;20036;-76
2022/03/31 00:32:13;;;;;;;13.82;7.25;;;;;;;6.52;100.00;100066.97;5266494;28;20016;-76
2022/03/31 00:34:43;;;;;;;12.48;6.55;;;;;;;6.52;100.00;100060.78;5265880;28;20024;-77
2022/03/31 00:37:46;;;;;;;15.43;7.82;;;;;;;6.50;100.00;100058.31;5266160;28;20521;-76
2022/03/31 00:40:19;;;;;;;13.20;7.20;;;;;;;6.47;100.00;100050.63;5259035;28;20024;-76
2022/03/31 00:42:53;;;;;;;12.40;7.10;;;;;;;6.44;100.00;100045.63;5260074;28;20039;-77
2022/03/31 00:45:28;;;;;;;13.20;6.55;;;;;;;6.45;100.00;100049.94;5265012;28;20134;-77
2022/03/31 00:47:58;;;;;;;13.40;6.97;;;;;;;6.43;100.00;100038.63;5266293;28;20471;-77
2022/03/31 00:50:30;;;;;;;15.90;6.82;;;;;;;6.40;100.00;100044.25;5266496;28;20023;-77
2022/03/31 00:53:01;;;;;;;12.30;6.70;;;;;;;6.39;100.00;100037.28;5266270;28;20073;-77
2022/03/31 00:55:32;;;;;;;15.85;8.15;;;;;;;6.35;100.00;100028.75;5265574;28;20554;-77
2022/03/31 00:58:03;;;;;;;13.75;7.45;;;;;;;6.31;100.00;100038.03;5265780;28;20101;-77
2022/03/31 01:00:34;;;;;;;15.93;6.93;;;;;;;6.27;100.00;100031.34;5266253;28;20395;-77
2022/03/31 01:03:05;;;;;;;10.30;6.15;;;;;;;6.26;100.00;100031.53;5266134;28;20497;-77
2022/03/31 01:05:38;;;;;;;13.13;6.97;;;;;;;6.26;100.00;100027.03;5266204;28;20061;-77
2022/03/31 01:08:15;;;;;;;17.10;7.80;;;;;;;6.25;100.00;100017.38;5249155;28;20024;-77
2022/03/31 01:10:47;;;;;;;18.83;7.25;;;;;;;6.25;100.00;100022.72;5266174;28;20531;-77
2022/03/31 01:13:17;;;;;;;17.40;7.18;;;;;;;6.22;100.00;100013.22;5266484;28;20047;-77
2022/03/31 01:16:07;;;;;;;18.77;6.72;;;;;;;6.21;100.00;100014.19;5253825;28;20020;-76
2022/03/31 01:18:38;;;;;;;17.42;7.28;;;;;;;6.20;100.00;100017.00;5265978;28;20031;-76
2022/03/31 01:21:24;;;;;;;14.18;8.20;;;;;;;6.18;100.00;100011.84;5266059;28;20031;-76
2022/03/31 01:23:55;;;;;;;16.25;7.82;;;;;;;6.13;100.00;100011.50;5265940;28;20025;-77
2022/03/31 01:26:26;;;;;;;21.40;8.48;;;;;;;6.08;100.00;100005.81;5265538;28;20028;-77
2022/03/31 01:29:09;;;;;;;15.52;7.95;;;;;;;6.03;100.00;100008.09;5266016;28;20380;-77
2022/03/31 01:31:50;;;;;;;16.75;8.45;;;;;;;6.03;100.00;100007.28;5266086;28;20024;-77
2022/03/31 01:34:21;;;;;;;16.50;7.93;;;;;;;6.02;100.00;100005.59;5265513;28;20403;-77
2022/03/31 01:36:51;;;;;;;17.63;8.73;;;;;;;6.04;100.00;100006.28;5266111;28;20027;-77
2022/03/31 01:39:21;;;;;;;17.95;9.38;;;;;;;6.04;100.00;100009.78;5266035;28;20039;-77
2022/03/31 01:41:52;;;;;;;17.25;8.80;;;;;;;6.05;100.00;100006.13;5252002;28;20082;-77
2022/03/31 01:44:23;;;;;;;16.65;9.20;;;;;;;6.08;100.00;100004.97;5265278;28;20040;-79
2022/03/31 01:46:54;;;;;;;15.05;8.10;;;;;;;6.11;100.00;100012.63;5265883;28;20425;-79
2022/03/31 01:49:25;;;;;;;20.73;9.43;;;;;;;6.15;100.00;100008.66;5265806;28;20081;-79
2022/03/31 01:51:55;;;;;;;16.55;8.48;;;;;;;6.19;100.00;100007.38;5247813;28;20073;-79
2022/03/31 01:54:26;;;;;;;15.00;8.23;;;;;;;6.21;100.00;100008.03;5265445;28;20023;-78
2022/03/31 01:56:57;;;;;;;17.35;8.65;;;;;;;6.21;100.00;100000.88;5269914;28;20038;-78
2022/03/31 01:59:46;;;;;;;20.75;8.38;;;;;;;6.20;100.00;99990.38;5270029;28;20031;-75
2022/03/31 02:02:18;;;;;;;19.90;8.75;;;;;;;6.15;100.00;99990.84;5269447;28;20024;-77
2022/03/31 02:04:48;;;;;;;19.40;9.60;;;;;;;6.11;100.00;99994.00;5269787;28;20055;-76
2022/03/31 02:07:19;;;;;;;21.73;9.30;;;;;;;6.06;100.00;99985.66;5269660;28;20035;-76
2022/03/31 02:09:49;;;;;;;17.92;9.02;;;;;;;6.03;100.00;99985.97;5269190;28;20024;-76
2022/03/31 02:12:21;;;;;;;20.52;9.63;;;;;;;5.97;100.00;99984.75;5269177;28;20514;-76
2022/03/31 02:14:52;;;;;;;20.17;9.13;;;;;;;5.96;100.00;99985.75;5258933;28;20063;-76
2022/03/31 02:17:22;;;;;;;20.17;9.93;;;;;;;5.94;100.00;99985.91;5267276;28;20059;-76
2022/03/31 02:19:53;;;;;;;23.85;9.68;;;;;;;5.93;100.00;99988.75;5269442;28;20032;-76
2022/03/31 02:22:24;;;;;;;18.83;10.00;;;;;;;5.94;100.00;99993.91;5269151;28;20107;-76
2022/03/31 02:24:54;;;;;;;23.98;9.32;;;;;;;5.94;100.00;99993.06;5268385;28;20024;-76
2022/03/31 02:27:25;;;;;;;19.75;10.23;;;;;;;5.92;100.00;99987.91;5269147;28;20560;-76
2022/03/31 02:29:55;;;;;;;18.98;9.55;;;;;;;5.92;100.00;99989.72;5269271;28;20019;-76
2022/03/31 02:32:26;;;;;;;23.77;10.82;;;;;;;5.92;100.00;99979.06;5269199;28;20016;-76
2022/03/31 02:34:57;;;;;;;19.48;9.48;;;;;;;5.90;100.00;99981.88;5268280;28;20491;-76
2022/03/31 02:37:27;;;;;;;21.45;10.30;;;;;;;5.89;100.00;99972.22;5268920;28;20382;-76
2022/03/31 02:39:58;;;;;;;20.00;9.60;;;;;;;5.88;100.00;99975.03;5263431;28;20491;-76
2022/03/31 02:42:28;;;;;;;18.20;9.60;;;;;;;5.86;100.00;99972.50;5259996;28;20442;-76
2022/03/31 02:44:59;;;;;;;20.95;10.00;;;;;;;5.83;100.00;99972.84;5268168;28;20487;-76
2022/03/31 02:47:29;;;;;;;21.98;9.25;;;;;;;5.83;100.00;99974.69;5268653;28;20031;-76
2022/03/31 02:50:00;;;;;;;22.40;9.55;;;;;;;5.84;100.00;99965.69;5268949;28;20031;-76
2022/03/31 02:55:24;;;;;;;22.08;9.43;;;;;;;5.80;100.00;99970.50;5268232;28;20016;-76
2022/03/31 02:58:07;;;;;;;19.27;9.13;;;;;;;5.72;100.00;99973.09;5268482;28;20039;-76
2022/03/31 03:00:38;;;;;;;15.15;8.63;;;;;;;5.84;100.00;99976.34;5268179;28;20328;-76
2022/03/31 03:03:11;;;;;;;17.45;8.43;;;;;;;5.80;100.00;99969.66;5268114;28;20028;-76
2022/03/31 03:05:42;;;;;;;16.70;8.60;;;;;;;5.78;100.00;99972.47;5267589;28;20036;-76
2022/03/31 03:08:15;;;;;;;16.75;8.07;;;;;;;5.69;100.00;99968.09;5267437;28;20405;-76
2022/03/31 03:10:45;;;;;;;17.58;8.57;;;;;;;5.66;100.00;99973.72;5267740;28;20020;-76
2022/03/31 03:13:17;;;;;;;16.65;8.82;;;;;;;5.64;100.00;99968.56;5268528;28;20027;-76
2022/03/31 03:15:48;;;;;;;18.40;9.23;;;;;;;5.66;100.00;99966.56;5256263;28;20094;-76
2022/03/31 03:18:19;;;;;;;17.13;8.70;;;;;;;5.66;100.00;99973.72;5268014;28;20154;-76
2022/03/31 03:20:50;;;;;;;19.58;9.00;;;;;;;5.68;100.00;99963.78;5267705;28;20057;-76
2022/03/31 03:23:20;;;;;;;15.90;8.10;;;;;;;5.66;100.00;99963.91;5267747;28;20020;-76
2022/03/31 03:25:50;;;;;;;17.73;8.85;;;;;;;5.64;100.00;99963.22;5267102;28;20396;-76
2022/03/31 03:28:21;;;;;;;15.82;8.48;;;;;;;5.68;100.00;99966.44;5267930;28;20035;-76
2022/03/31 03:30:51;;;;;;;14.90;7.65;;;;;;;5.70;100.00;99954.63;5267440;28;20027;-76
2022/03/31 03:33:22;;;;;;;13.15;7.43;;;;;;;5.52;100.00;99968.94;5267757;28;20411;-76
2022/03/31 03:35:52;;;;;;;11.75;6.28;;;;;;;5.54;100.00;99967.81;5267068;28;20098;-76
2022/03/31 03:38:23;;;;;;;16.90;7.25;;;;;;;5.45;100.00;99976.72;5267306;28;20020;-77
2022/03/31 03:40:54;;;;;;;16.42;7.70;;;;;;;5.38;100.00;99976.50;5254684;28;20499;-76
2022/03/31 03:43:25;;;;;;;18.55;7.18;;;;;;;5.32;100.00;99970.97;5266500;28;20483;-76
2022/03/31 03:45:55;;;;;;;12.43;7.47;;;;;;;5.23;100.00;99966.59;5266476;28;20016;-76
2022/03/31 03:48:26;;;;;;;19.92;8.35;;;;;;;5.19;100.00;99968.69;5267506;28;20043;-76
2022/03/31 03:50:56;;;;;;;17.60;9.38;;;;;;;5.06;100.00;99962.94;5266780;28;20020;-76
2022/03/31 03:53:27;;;;;;;15.55;8.68;;;;;;;4.87;100.00;99964.75;5267227;28;20020;-76
2022/03/31 03:55:57;;;;;;;18.85;9.00;;;;;;;4.75;100.00;99965.94;5267030;28;20024;-75
2022/03/31 03:58:28;;;;;;;23.77;8.70;;;;;;;4.64;100.00;99967.00;5267375;28;20553;-76
2022/03/31 04:00:58;;;;;;;16.50;9.10;;;;;;;4.53;100.00;99977.84;5266870;28;20030;-76
2022/03/31 04:03:28;;;;;;;17.10;9.82;;;;;;;4.53;100.00;99977.00;5266797;28;20115;-75
2022/03/31 04:05:59;;;;;;;16.70;8.90;;;;;;;4.42;100.00;99988.69;5266598;28;20497;-76
2022/03/31 04:08:30;;;;;;;16.85;9.15;;;;;;;4.32;100.00;99987.88;5267109;28;20147;-76
2022/03/31 04:11:00;;;;;;;15.48;7.90;;;;;;;4.31;100.00;99986.19;5266743;28;20028;-75
2022/03/31 04:13:30;;;;;;;11.75;6.38;;;;;;;4.16;100.00;99984.00;5266882;28;20069;-76
2022/03/31 04:16:02;;;;;;;11.50;6.43;;;;;;;4.06;100.00;99993.81;5254811;28;20542;-76
2022/03/31 04:18:32;;;;;;;10.50;6.22;;;;;;;3.96;100.00;99989.53;5248191;28;20024;-76
2022/03/31 04:21:03;;;;;;;14.52;7.15;;;;;;;3.93;100.00;100001.28;5266774;28;20498;-76
2022/03/31 04:23:34;;;;;;;12.50;6.18;;;;;;;3.89;100.00;100006.03;5266610;28;20031;-76
2022/03/31 04:26:04;;;;;;;11.63;4.50;;;;;;;3.87;100.00;100012.50;5266577;28;20054;-76
2022/03/31 04:28:35;;;;;;;5.57;3.33;;;;;;;3.66;100.00;99998.56;5266520;28;20063;-76
2022/03/31 04:31:05;;;;;;;5.90;3.22;;;;;;;3.50;100.00;100007.94;5266383;28;20020;-75
2022/03/31 04:33:36;;;;;;;5.05;2.72;;;;;;;3.38;100.00;100015.19;5248536;28;20012;-76
2022/03/31 04:36:06;;;;;;;4.63;3.20;;;;;;;3.20;100.00;99995.66;5266055;28;20028;-76
2022/03/31 04:38:37;;;;;;;5.68;3.00;;;;;;;3.20;100.00;100005.44;5266517;28;20024;-75
2022/03/31 04:41:08;;;;;;;4.85;3.17;;;;;;;3.19;100.00;100001.13;5252707;28;20119;-76
2022/03/31 04:43:39;;;;;;;4.80;3.35;;;;;;;3.09;100.00;100022.31;5266509;28;20483;-76
2022/03/31 04:46:09;;;;;;;4.40;3.28;;;;;;;2.98;100.00;100017.16;5265917;28;20030;-76
2022/03/31 04:48:40;;;;;;;3.20;2.53;;;;;;;3.03;100.00;100015.75;5266493;28;20020;-76
2022/03/31 04:51:10;;;;;;;3.78;2.90;;;;;;;2.94;100.00;100024.53;5252961;28;20024;-75
2022/03/31 04:53:41;;;;;;;4.38;3.08;;;;;;;2.92;100.00;100020.34;5266588;28;20020;-75
2022/03/31 04:56:11;;;;;;;5.40;2.72;;;;;;;2.83;100.00;100024.66;5266035;28;20378;-75
2022/03/31 04:58:42;;;;;;;3.60;2.47;;;;;;;2.75;100.00;100020.03;5266390;28;20028;-76
2022/03/31 05:01:12;;;;;;;6.03;2.90;;;;;;;2.56;100.00;100022.63;5266119;28;20031;-75
2022/03/31 05:03:43;;;;;;;5.47;2.40;;;;;;;2.58;100.00;100018.03;5266160;28;20114;-76
2022/03/31 05:06:14;;;;;;;5.07;2.60;;;;;;;2.45;100.00;100009.47;5265765;28;20020;-75
2022/03/31 05:08:44;;;;;;;5.72;2.45;;;;;;;2.37;100.00;100018.13;5266378;28;20057;-75
2022/03/31 05:11:15;;;;;;;5.55;3.45;;;;;;;2.31;100.00;100016.00;5266050;28;20035;-75
2022/03/31 05:13:45;;;;;;;5.45;3.45;;;;;;;2.18;100.00;100023.31;5265850;28;20016;-76
2022/03/31 05:16:16;;;;;;;8.80;3.80;;;;;;;2.13;100.00;100026.38;5264429;28;20042;-76
2022/03/31 05:18:47;;;;;;;7.15;3.47;;;;;;;2.08;100.00;100018.81;5266277;28;20016;-78
2022/03/31 05:21:18;;;;;;;7.47;4.25;;;;;;;2.03;100.00;100022.84;5266050;28;20034;-75
2022/03/31 05:23:49;;;;;;;8.45;4.63;;;;;;;2.01;100.00;100022.13;5265963;28;20024;-74
2022/03/31 05:26:19;;;;;;;10.43;5.28;;;;;;;2.00;100.00;100031.84;5265363;28;20020;-74
2022/03/31 05:28:50;;;;;;;8.88;4.70;;;;;;;2.00;100.00;100036.31;5265861;28;20479;-77
2022/03/31 05:31:20;;;;;;;10.25;4.80;;;;;;;1.99;100.00;100016.13;5251439;28;20494;-78
2022/03/31 05:33:51;;;;;;;9.40;4.53;;;;;;;1.97;100.00;100015.44;5270571;28;20345;-77
2022/03/31 05:36:21;;;;;;;12.07;5.75;;;;;;;1.90;100.00;100019.56;5269325;28;20042;-76
2022/03/31 05:38:52;;;;;;;11.80;5.05;;;;;;;1.91;100.00;100021.22;5270152;28;20077;-77
2022/03/31 05:41:24;;;;;;;12.40;5.28;;;;;;;1.90;100.00;100017.75;5255757;28;20024;-76
2022/03/31 05:43:55;;;;;;;13.13;6.15;;;;;;;1.90;100.00;100030.13;5269787;28;20024;-76
2022/03/31 05:46:25;;;;;;;14.82;6.75;;;;;;;1.92;100.00;100033.50;5269301;28;20169;-76
2022/03/31 05:48:56;;;;;;;17.92;8.07;;;;;;;1.95;100.00;100038.50;5269730;28;20090;-76
2022/03/31 05:51:26;;;;;;;20.90;8.63;;;;;;;2.01;100.00;100035.38;5269581;28;20016;-76
2022/03/31 05:53:57;;;;;;;21.13;9.43;;;;;;;1.96;100.00;100035.75;5269328;28;20103;-76
2022/03/31 05:56:27;;;;;;;21.33;8.88;;;;;;;1.90;100.00;100035.41;5269142;28;20035;-78
2022/03/31 05:58:58;;;;;;;22.15;8.90;;;;;;;1.94;100.00;100036.84;5251847;28;20114;-76
2022/03/31 06:01:28;;;;;;;21.15;9.57;;;;;;;1.95;100.00;100033.22;5269361;28;20081;-76
2022/03/31 06:03:59;;;;;;;24.02;10.23;;;;;;;1.95;100.00;100035.88;5269309;28;20387;-74
2022/03/31 06:06:29;;;;;;;22.80;10.00;;;;;;;1.95;100.00;100034.06;5268751;28;20039;-74
2022/03/31 06:09:00;;;;;;;26.17;10.43;;;;;;;1.98;100.00;100041.75;5269314;28;20024;-75
2022/03/31 06:11:30;;;;;;;31.08;11.60;;;;;;;2.00;100.00;100046.91;5269346;28;20024;-75
2022/03/31 06:14:01;;;;;;;29.63;11.98;;;;;;;2.07;100.00;100048.06;5248639;28;20493;-75
2022/03/31 06:16:31;;;;;;;23.17;10.73;;;;;;;2.14;100.00;100041.25;5259926;28;20543;-75
2022/03/31 06:19:02;;;;;;;29.10;12.02;;;;;;;2.15;100.00;100037.66;5250924;28;20052;-75
2022/03/31 06:21:33;;;;;;;24.58;11.57;;;;;;;2.17;100.00;100038.38;5268970;28;20024;-75
2022/03/31 06:24:03;;;;;;;28.27;12.20;;;;;;;2.15;100.00;100044.75;5269064;28;20023;-75
2022/03/31 06:26:34;;;;;;;28.20;12.98;;;;;;;2.21;100.00;100042.44;5268834;28;20542;-75
2022/03/31 06:29:05;;;;;;;30.08;13.35;;;;;;;2.23;100.00;100051.06;5268997;28;20020;-75
2022/03/31 06:31:38;;;;;;;27.52;11.77;;;;;;;2.25;100.00;100054.41;5268689;28;20024;-75
2022/03/31 06:34:08;;;;;;;33.05;13.07;;;;;;;2.25;100.00;100049.13;5268808;28;20040;-75
2022/03/31 06:36:39;;;;;;;28.58;13.20;;;;;;;2.23;100.00;100055.53;5268751;28;20102;-75
2022/03/31 06:39:09;;;;;;;32.40;13.40;;;;;;;2.28;100.00;100066.56;5250927;28;20035;-75
2022/03/31 06:41:42;;;;;;;27.83;12.98;;;;;;;2.27;100.00;100060.44;5253503;28;20027;-76
2022/03/31 06:44:13;;;;;;;24.08;10.93;;;;;;;2.29;100.00;100070.88;5268528;28;20031;-75
2022/03/31 06:46:44;;;;;;;22.55;11.15;;;;;;;2.33;100.00;100067.84;5266403;28;20020;-76
2022/03/31 06:49:14;;;;;;;27.13;11.18;;;;;;;2.37;100.00;100075.53;5248793;28;20028;-76
2022/03/31 06:51:46;;;;;;;21.23;9.98;;;;;;;2.43;100.00;100067.03;5268968;28;20602;-76
2022/03/31 06:54:18;;;;;;;22.75;11.50;;;;;;;2.33;100.00;100074.94;5266679;28;20062;-75
2022/03/31 06:56:49;;;;;;;25.13;11.02;;;;;;;2.32;100.00;100070.63;5267395;28;20024;-77
2022/03/31 06:59:21;;;;;;;28.38;11.35;;;;;;;2.33;100.00;100070.47;5267222;28;20024;-78
2022/03/31 07:01:51;;;;;;;24.55;11.95;;;;;;;2.31;100.00;100067.13;5248960;28;20024;-77
2022/03/31 07:04:21;;;;;;;31.13;13.70;;;;;;;2.27;100.00;100064.88;5252624;28;20110;-77
2022/03/31 07:06:52;;;;;;;27.17;12.60;;;;;;;2.29;100.00;100053.19;5266965;28;20028;-78
2022/03/31 07:09:23;;;;;;;30.73;13.80;;;;;;;2.37;100.00;100055.19;5266974;28;20111;-77
2022/03/31 07:11:55;;;;;;;34.38;14.85;;;;;;;2.38;100.00;100051.56;5266665;28;20020;-77
2022/03/31 07:14:25;;;;;;;37.60;15.05;;;;;;;2.40;100.00;100060.19;5260096;28;20085;-77
2022/03/31 07:16:56;;;;;;;36.20;15.20;;;;;;;2.47;100.00;100061.34;5261678;28;20024;-78
2022/03/31 07:19:26;;;;;;;35.45;16.17;;;;;;;2.51;100.00;100057.47;5266722;28;20123;-77
2022/03/31 07:21:57;;;;;;;35.78;16.35;;;;;;;2.64;100.00;100064.31;5265370;28;20028;-78
2022/03/31 07:24:27;;;;;;;35.88;16.60;;;;;;;2.68;100.00;100057.78;5265854;28;20256;-77
2022/03/31 07:26:58;;;;;;;37.40;16.35;;;;;;;2.76;100.00;100064.09;5266745;28;20038;-77
2022/03/31 07:29:29;;;;;;;36.25;16.55;;;;;;;2.72;100.00;100060.03;5248690;28;20028;-78
2022/03/31 07:31:59;;;;;;;34.80;15.02;;;;;;;2.67;100.00;100066.72;5268451;28;20038;-77
2022/03/31 07:34:29;;;;;;;39.38;15.73;;;;;;;2.70;100.00;100067.25;5267629;28;20721;-75
2022/03/31 07:37:00;;;;;;;37.85;17.75;;;;;;;2.78;100.00;100066.59;5266750;28;20708;-75
2022/03/31 07:39:31;;;;;;;33.65;14.50;;;;;;;2.89;100.00;100061.19;5265379;28;20645;-76
2022/03/31 07:42:02;;;;;;;30.17;13.95;;;;;;;2.92;100.00;100063.56;5253833;28;20589;-76
2022/03/31 07:44:33;;;;;;;27.27;14.23;;;;;;;2.89;100.00;100058.53;5265433;28;20036;-76
2022/03/31 07:47:03;;;;;;;31.75;14.48;;;;;;;2.82;100.00;100078.59;5266097;28;20043;-75
2022/03/31 07:49:34;;;;;;;28.30;13.10;;;;;;;2.91;100.00;100074.28;5248129;28;20110;-76
2022/03/31 07:52:05;;;;;;;28.15;13.65;;;;;;;2.93;100.00;100075.00;5266030;28;20028;-76
2022/03/31 07:54:35;;;;;;;32.63;14.85;;;;;;;2.99;100.00;100071.81;5247060;28;20603;-76
2022/03/31 07:57:06;;;;;;;25.95;12.20;;;;;;;3.01;100.00;100069.84;5266101;28;20020;-76
2022/03/31 07:59:36;;;;;;;24.73;12.40;;;;;;;3.05;100.00;100071.25;5266007;28;20077;-76
2022/03/31 08:02:07;;;;;;;22.58;12.10;;;;;;;3.17;100.00;100072.00;5246748;28;20099;-75
2022/03/31 08:04:37;;;;;;;20.63;9.95;;;;;;;3.17;100.00;100069.34;5265243;28;20036;-76
2022/03/31 08:07:08;;;;;;;18.65;9.10;;;;;;;3.10;100.00;100071.69;5265402;28;20028;-76
2022/03/31 08:09:38;;;;;;;20.73;9.73;;;;;;;3.13;100.00;100071.41;5265792;28;20054;-77
2022/03/31 08:12:09;;;;;;;23.63;10.13;;;;;;;3.15;100.00;100079.22;5265516;28;20058;-75
2022/03/31 08:14:40;;;;;;;20.00;8.80;;;;;;;3.21;100.00;100082.16;5256998;28;20036;-76
2022/03/31 08:17:10;;;;;;;24.77;9.57;;;;;;;3.15;100.00;100082.72;5262318;28;20026;-76
2022/03/31 08:19:41;;;;;;;16.77;9.45;;;;;;;3.18;100.00;100078.97;5247410;28;20028;-76
2022/03/31 08:22:11;;;;;;;20.15;8.70;;;;;;;3.16;100.00;100089.69;5265504;28;20028;-76
2022/03/31 08:24:42;;;;;;;11.57;6.72;;;;;;;3.22;100.00;100083.84;5265173;28;20368;-76
2022/03/31 08:27:12;;;;;;;10.20;6.10;;;;;;;3.28;100.00;100087.75;5265493;28;20085;-76
2022/03/31 08:29:43;;;;;;;13.10;7.13;;;;;;;3.24;100.00;100076.59;5265448;28;20019;-76
2022/03/31 08:32:15;;;;;;;16.23;7.78;;;;;;;3.23;100.00;100079.38;5257606;28;20063;-76
2022/03/31 08:34:46;;;;;;;12.27;6.18;;;;;;;3.27;100.00;100073.66;5258726;28;20074;-76
2022/03/31 08:37:18;;;;;;;10.25;5.93;;;;;;;3.27;100.00;100076.31;5247513;28;20487;-76
2022/03/31 08:39:48;;;;;;;10.45;6.35;;;;;;;3.37;100.00;100082.47;5243866;28;20090;-76
2022/03/31 08:42:19;;;;;;;12.45;7.60;;;;;;;3.44;100.00;100085.41;5255605;28;20016;-76
2022/03/31 08:44:51;;;;;;;13.52;6.68;;;;;;;3.57;100.00;100082.47;5264735;28;20035;-76
2022/03/31 08:47:21;;;;;;;13.45;6.35;;;;;;;3.55;100.00;100084.41;5264765;28;20027;-76
2022/03/31 08:49:53;;;;;;;11.95;6.50;;;;;;;3.62;100.00;100074.94;5264668;28;20495;-76
2022/03/31 08:52:24;;;;;;;11.15;6.25;;;;;;;3.82;100.00;100078.41;5266736;28;20111;-76
2022/03/31 08:54:54;;;;;;;9.98;5.78;;;;;;;3.86;100.00;100080.63;5247002;28;20578;-76
2022/03/31 08:57:25;;;;;;;8.65;5.25;;;;;;;3.92;100.00;100076.59;5252150;28;20029;-76
2022/03/31 08:59:56;;;;;;;9.07;5.50;;;;;;;3.86;100.00;100085.94;5247654;28;20082;-76
2022/03/31 09:02:27;;;;;;;7.18;5.13;;;;;;;3.93;100.00;100088.88;5246729;28;20035;-76
2022/03/31 09:05:03;;;;;;;8.40;5.07;;;;;;;3.99;100.00;100079.50;5266005;28;20077;-76
2022/03/31 09:07:34;;;;;;;13.45;6.03;;;;;;;4.17;100.00;100085.75;5265013;28;20041;-76
2022/03/31 09:10:04;;;;;;;11.52;5.28;;;;;;;4.24;100.00;100084.19;5242279;28;20023;-76
2022/03/31 09:12:37;;;;;;;11.73;5.28;;;;;;;4.22;100.00;100077.34;5269446;28;20395;-76
2022/03/31 09:15:12;;;;;;;7.35;5.10;;;;;;;4.23;100.00;100085.19;5256486;28;20027;-77
2022/03/31 09:17:42;;;;;;;10.43;4.95;;;;;;;4.40;100.00;100087.06;5228472;28;20442;-76
2022/03/31 09:20:13;;;;;;;12.77;5.32;;;;;;;4.44;100.00;100079.66;5243997;28;20024;-76
2022/03/31 09:22:48;;;;;;;11.52;4.88;;;;;;;4.54;100.00;100085.75;5268877;28;20023;-76
2022/03/31 09:25:37;;;;;;;7.25;4.85;;;;;;;4.59;100.00;100083.50;5268593;28;20039;-76
2022/03/31 09:28:26;;;;;;;8.75;4.45;;;;;;;4.93;100.00;100089.09;5269030;28;20039;-76
2022/03/31 09:30:57;;;;;;;10.00;4.47;;;;;;;5.01;100.00;100084.81;5268827;28;20036;-76
2022/03/31 09:33:29;;;;;;;5.80;4.00;;;;;;;4.96;100.00;100082.63;5250330;28;20032;-76
2022/03/31 09:36:19;;;;;;;6.75;4.47;;;;;;;5.11;100.00;100094.41;5252248;28;20032;-76
2022/03/31 09:38:53;;;;;;;5.82;3.83;;;;;;;5.18;100.00;100082.22;5247562;28;20027;-76
2022/03/31 09:41:27;;;;;;;4.95;3.65;;;;;;;5.23;100.00;100081.75;5236912;28;20020;-76
2022/03/31 09:44:01;;;;;;;8.43;4.00;;;;;;;5.20;100.00;100079.41;5268228;28;20483;-76
2022/03/31 09:46:51;;;;;;;8.93;5.13;;;;;;;5.10;100.00;100078.63;5268119;28;20016;-76
2022/03/31 09:49:24;;;;;;;8.00;4.32;;;;;;;5.26;100.00;100084.09;5268045;28;20169;-76
2022/03/31 09:51:58;;;;;;;6.15;3.40;;;;;;;5.30;100.00;100071.34;5268337;28;20082;-76
2022/03/31 09:54:31;;;;;;;9.25;4.13;;;;;;;5.28;100.00;100079.50;5267724;28;20028;-76
2022/03/31 09:57:04;;;;;;;8.75;4.32;;;;;;;5.22;100.00;100077.44;5268507;28;20031;-76
2022/03/31 09:59:38;;;;;;;9.13;4.40;;;;;;;5.27;100.00;100080.47;5267886;28;20031;-76
2022/03/31 10:02:08;;;;;;;7.82;3.90;;;;;;;5.27;100.00;100077.81;5267208;28;20082;-76
2022/03/31 10:04:44;;;;;;;7.78;4.47;;;;;;;5.09;100.00;100074.28;5267786;28;20449;-76
2022/03/31 10:07:15;;;;;;;8.65;4.28;;;;;;;4.92;100.00;100078.59;5268560;28;20024;-76
2022/03/31 10:09:46;;;;;;;9.63;4.90;;;;;;;4.98;100.00;100067.38;5268401;28;20024;-76
2022/03/31 10:12:41;;;;;;;7.72;4.22;;;;;;;5.06;100.00;100070.09;5249786;28;20023;-76
2022/03/31 10:15:19;;;;;;;5.65;4.00;;;;;;;5.41;100.00;100063.97;5255288;28;20556;-76
2022/03/31 10:17:50;;;;;;;5.00;3.72;;;;;;;5.70;100.00;100065.56;5267089;28;20433;-76
2022/03/31 10:20:21;;;;;;;6.32;3.67;;;;;;;6.10;100.00;100069.56;5267430;28;20123;-76
2022/03/31 10:25:46;;;;;;;6.30;3.33;;;;;;;6.60;100.00;100074.16;5260307;28;20036;-76
2022/03/31 10:28:21;;;;;;;8.13;3.97;;;;;;;6.88;100.00;100072.13;5261352;28;20028;-76
2022/03/31 10:31:08;;;;;;;5.55;3.90;;;;;;;7.11;100.00;100061.69;5266848;28;20479;-76
2022/03/31 10:33:42;;;;;;;7.97;3.90;;;;;;;7.21;100.00;100057.03;5267574;28;20099;-76
2022/03/31 10:36:16;;;;;;;5.22;3.50;;;;;;;7.43;100.00;100069.78;5249095;28;20050;-76
2022/03/31 10:39:07;;;;;;;6.50;4.05;;;;;;;7.49;100.00;100069.09;5267416;28;20024;-76
2022/03/31 10:41:39;;;;;;;5.75;3.90;;;;;;;7.44;100.00;100068.75;5253407;28;20032;-76
2022/03/31 10:44:27;;;;;;;6.85;3.40;;;;;;;7.74;100.00;100064.63;5248662;28;20032;-76
2022/03/31 10:47:01;;;;;;;8.02;3.70;;;;;;;7.53;100.00;100049.09;5249505;28;20036;-76
2022/03/31 10:49:33;;;;;;;6.07;3.50;;;;;;;6.86;100.00;100064.28;5267517;28;20487;-76
2022/03/31 10:52:23;;;;;;;6.18;3.50;;;;;;;6.78;100.00;100072.25;5268542;28;20016;-76
2022/03/31 10:55:06;;;;;;;6.15;3.67;;;;;;;6.47;100.00;100071.94;5267779;28;20020;-76
2022/03/31 10:57:40;;;;;;;4.97;3.05;;;;;;;6.34;100.00;100076.88;5268267;28;20028;-76
2022/03/31 11:00:14;;;;;;;7.22;3.70;;;;;;;6.16;100.00;100068.91;5267906;28;20024;-76
2022/03/31 11:02:46;;;;;;;7.65;3.53;;;;;;;5.80;100.00;100070.81;5267859;28;20035;-76
2022/03/31 11:05:16;;;;;;;5.10;3.40;;;;;;;5.49;100.00;100065.88;5267449;28;20028;-76
2022/03/31 11:07:48;;;;;;;6.82;3.83;;;;;;;5.55;100.00;100075.06;5249920;28;20024;-76
2022/03/31 11:10:18;;;;;;;9.98;3.95;;;;;;;5.71;100.00;100067.22;5267944;28;20387;-75
2022/03/31 11:12:49;;;;;;;8.20;4.05;;;;;;;5.96;100.00;100061.13;5267722;28;20028;-75
2022/03/31 11:15:20;;;;;;;8.38;4.05;;;;;;;6.02;100.00;100053.50;5256438;28;20077;-75
2022/03/31 11:17:59;;;;;;;6.70;3.75;;;;;;;6.39;100.00;100051.41;5267992;28;20027;-75
2022/03/31 11:20:30;;;;;;;10.18;3.75;;;;;;;6.53;100.00;100058.00;5267745;28;20024;-75
2022/03/31 11:23:03;;;;;;;8.25;4.07;;;;;;;6.70;100.00;100054.38;5267534;28;20016;-76
2022/03/31 11:25:35;;;;;;;6.80;4.30;;;;;;;6.91;100.00;100055.78;5267307;28;20028;-76
2022/03/31 11:28:10;;;;;;;6.07;3.25;;;;;;;7.07;100.00;100044.34;5250894;28;20028;-75
2022/03/31 11:30:43;;;;;;;7.18;3.25;;;;;;;7.15;100.00;100039.88;5283981;28;20020;-79
2022/03/31 11:33:15;;;;;;;4.80;3.42;;;;;;;7.39;100.00;100035.56;5261004;28;20066;-79
2022/03/31 11:35:51;;;;;;;9.40;4.18;;;;;;;7.44;100.00;100036.75;5274660;28;20016;-80
2022/03/31 11:38:21;;;;;;;13.52;3.88;;;;;;;7.54;100.00;100039.25;5268685;28;20038;-74
2022/03/31 11:40:52;;;;;;;9.70;3.38;;;;;;;7.83;100.00;100030.75;5254783;28;20016;-75
2022/03/31 11:43:22;;;;;;;5.90;3.30;;;;;;;7.92;100.00;100035.03;5266096;28;20407;-76
2022/03/31 11:45:55;;;;;;;6.05;2.92;;;;;;;7.97;100.00;100032.69;5266433;28;20031;-77
2022/03/31 11:48:40;;;;;;;5.47;3.55;;;;;;;7.97;100.00;100024.69;5267387;28;20020;-77
2022/03/31 11:51:10;;;;;;;6.82;3.45;;;;;;;7.57;100.00;100030.88;5249473;28;20028;-77